createdAt,value
2023-12-09T00:02:04.114Z,16.53
2023-12-09T00:04:32.327Z,14.80
2023-12-09T00:07:02.134Z,23.43
2023-12-09T00:09:30.933Z,18.60
2023-12-09T00:11:59.326Z,19.30
2023-12-09T00:14:27.655Z,23.43
2023-12-09T00:16:55.794Z,18.33
2023-12-09T00:19:24.322Z,20.73
2023-12-09T00:21:52.543Z,22.60
2023-12-09T00:24:22.205Z,22.10
2023-12-09T00:26:50.647Z,16.43
2023-12-09T00:29:18.803Z,19.50
2023-12-09T00:31:47.042Z,20.10
2023-12-09T00:34:15.342Z,20.63
2023-12-09T00:36:43.557Z,18.83
2023-12-09T00:39:11.696Z,21.47
2023-12-09T00:41:41.249Z,21.00
2023-12-09T00:44:09.356Z,21.10
2023-12-09T00:46:38.612Z,22.73
2023-12-09T00:49:06.918Z,17.93
2023-12-09T00:51:35.336Z,24.90
2023-12-09T00:54:03.634Z,19.97
2023-12-09T00:56:34.745Z,20.73
2023-12-09T00:59:05.285Z,24.83
2023-12-09T01:01:34.835Z,16.27
2023-12-09T01:04:04.491Z,18.87
2023-12-09T01:06:33.326Z,26.93
2023-12-09T01:09:01.592Z,22.60
2023-12-09T01:11:29.800Z,21.03
2023-12-09T01:13:57.954Z,20.77
2023-12-09T01:16:27.612Z,15.57
2023-12-09T01:18:55.983Z,18.83
2023-12-09T01:21:24.275Z,18.20
2023-12-09T01:23:52.444Z,16.93
2023-12-09T01:26:20.668Z,19.70
2023-12-09T01:28:48.889Z,17.17
2023-12-09T01:31:17.289Z,20.57
2023-12-09T01:33:47.164Z,21.57
2023-12-09T01:36:15.638Z,19.17
2023-12-09T01:38:43.938Z,21.40
2023-12-09T01:41:12.157Z,20.57
2023-12-09T01:43:40.326Z,17.30
2023-12-09T01:46:12.792Z,20.90
2023-12-09T01:48:41.547Z,19.97
2023-12-09T01:51:11.529Z,19.83
2023-12-09T01:53:40.131Z,18.23
2023-12-09T01:56:11.669Z,15.93
2023-12-09T01:58:40.574Z,19.37
2023-12-09T02:01:09.513Z,21.57
2023-12-09T02:03:38.138Z,18.33
2023-12-09T02:06:06.674Z,23.57
2023-12-09T02:08:37.206Z,19.90
2023-12-09T02:11:15.436Z,19.67
2023-12-09T02:14:04.235Z,20.00
2023-12-09T02:16:40.585Z,23.53
2023-12-09T02:19:13.319Z,21.07
2023-12-09T02:22:01.684Z,21.07
2023-12-09T02:24:34.083Z,16.27
2023-12-09T02:27:06.804Z,20.80
2023-12-09T02:29:40.232Z,18.20
2023-12-09T02:32:10.148Z,18.20
2023-12-09T02:34:41.271Z,18.13
2023-12-09T02:37:12.369Z,17.07
2023-12-09T02:39:42.261Z,16.87
2023-12-09T02:42:11.295Z,17.13
2023-12-09T02:44:41.929Z,17.87
2023-12-09T02:47:13.922Z,15.93
2023-12-09T02:49:42.950Z,19.97
2023-12-09T02:52:11.913Z,18.53
2023-12-09T02:54:41.460Z,18.10
2023-12-09T02:57:09.664Z,18.90
2023-12-09T02:59:37.897Z,19.13
2023-12-09T03:02:06.274Z,16.87
2023-12-09T03:04:34.600Z,18.47
2023-12-09T03:07:02.812Z,27.60
2023-12-09T03:09:30.998Z,18.83
2023-12-09T03:12:00.542Z,23.73
2023-12-09T03:14:30.200Z,17.43
2023-12-09T03:16:58.638Z,22.87
2023-12-09T03:19:27.069Z,19.23
2023-12-09T03:21:55.270Z,17.63
2023-12-09T03:24:23.512Z,17.23
2023-12-09T03:26:53.013Z,16.97
2023-12-09T03:29:23.202Z,16.60
2023-12-09T03:31:51.835Z,20.47
2023-12-09T03:34:20.282Z,17.33
2023-12-09T03:36:48.498Z,17.97
2023-12-09T03:39:16.854Z,18.03
2023-12-09T03:41:45.075Z,20.40
2023-12-09T03:44:13.394Z,15.60
2023-12-09T03:46:42.921Z,19.23
2023-12-09T03:49:11.298Z,19.53
2023-12-09T03:51:39.693Z,18.23
2023-12-09T03:54:08.023Z,17.40
2023-12-09T03:56:36.466Z,20.60
2023-12-09T03:59:04.728Z,14.33
2023-12-09T04:01:32.887Z,15.77
2023-12-09T04:04:02.727Z,22.40
2023-12-09T04:06:30.937Z,15.53
2023-12-09T04:08:59.220Z,16.83
2023-12-09T04:11:27.366Z,17.20
2023-12-09T04:13:55.592Z,17.53
2023-12-09T04:16:23.882Z,16.13
2023-12-09T04:18:52.168Z,19.20
2023-12-09T04:21:21.900Z,18.40
2023-12-09T04:23:50.060Z,18.13
2023-12-09T04:26:18.193Z,15.83
2023-12-09T04:28:46.741Z,18.70
2023-12-09T04:31:15.004Z,15.67
2023-12-09T04:33:45.501Z,16.40
2023-12-09T04:36:13.970Z,15.47
2023-12-09T04:38:44.286Z,14.77
2023-12-09T04:41:12.535Z,18.37
2023-12-09T04:43:41.001Z,18.17
2023-12-09T04:46:09.644Z,15.67
2023-12-09T04:48:37.954Z,18.27
2023-12-09T04:51:06.457Z,19.63
2023-12-09T04:53:36.565Z,16.50
2023-12-09T04:56:08.582Z,18.90
2023-12-09T04:58:36.998Z,12.90
2023-12-09T05:01:05.248Z,16.60
2023-12-09T05:03:33.944Z,16.90
2023-12-09T05:06:02.601Z,17.83
2023-12-09T05:08:31.346Z,16.63
2023-12-09T05:10:59.754Z,20.00
2023-12-09T05:13:29.306Z,12.27
2023-12-09T05:15:57.547Z,20.33
2023-12-09T05:18:25.829Z,17.43
2023-12-09T05:20:54.226Z,13.57
2023-12-09T05:23:22.488Z,13.87
2023-12-09T05:25:51.513Z,15.53
2023-12-09T05:28:19.779Z,18.40
2023-12-09T05:30:49.882Z,14.37
2023-12-09T05:33:18.579Z,12.93
2023-12-09T05:35:46.837Z,17.53
2023-12-09T05:38:14.989Z,10.97
2023-12-09T05:40:43.161Z,12.10
2023-12-09T05:43:11.609Z,15.47
2023-12-09T05:45:39.785Z,13.43
2023-12-09T05:48:09.586Z,13.93
2023-12-09T05:50:37.826Z,13.17
2023-12-09T05:53:06.126Z,11.57
2023-12-09T05:55:34.246Z,13.33
2023-12-09T05:58:02.647Z,14.97
2023-12-09T06:00:31.515Z,11.30
2023-12-09T06:03:00.286Z,11.00
2023-12-09T06:05:29.804Z,14.00
2023-12-09T06:07:58.063Z,14.43
2023-12-09T06:10:26.167Z,12.10
2023-12-09T06:12:54.332Z,10.73
2023-12-09T06:15:22.631Z,13.63
2023-12-09T06:17:50.985Z,8.03
2023-12-09T06:20:19.391Z,11.13
2023-12-09T06:22:48.891Z,11.50
2023-12-09T06:25:17.052Z,12.80
2023-12-09T06:27:45.596Z,13.37
2023-12-09T06:30:14.685Z,13.27
2023-12-09T06:32:43.392Z,10.80
2023-12-09T06:35:12.529Z,12.67
2023-12-09T06:37:40.726Z,9.77
2023-12-09T06:40:11.831Z,9.67
2023-12-09T06:42:39.990Z,11.77
2023-12-09T06:45:09.079Z,9.90
2023-12-09T06:47:37.317Z,10.40
2023-12-09T06:50:06.102Z,10.57
2023-12-09T06:52:34.242Z,10.00
2023-12-09T06:55:02.428Z,10.83
2023-12-09T06:57:32.040Z,9.27
2023-12-09T07:00:00.312Z,8.83
2023-12-09T07:02:40.712Z,12.97
2023-12-09T07:05:17.255Z,10.90
2023-12-09T07:07:45.485Z,12.53
2023-12-09T07:10:15.016Z,8.53
2023-12-09T07:12:44.898Z,11.43
2023-12-09T07:15:13.931Z,12.30
2023-12-09T07:17:42.392Z,12.80
2023-12-09T07:20:11.921Z,10.07
2023-12-09T07:22:40.263Z,9.43
2023-12-09T07:25:09.000Z,12.13
2023-12-09T07:27:37.278Z,12.87
2023-12-09T07:30:08.559Z,12.43
2023-12-09T07:32:37.097Z,9.70
2023-12-09T07:35:06.787Z,7.10
2023-12-09T07:37:34.989Z,12.37
2023-12-09T07:40:05.965Z,8.53
2023-12-09T07:42:34.275Z,11.10
2023-12-09T07:45:02.640Z,9.17
2023-12-09T07:47:32.609Z,10.50
2023-12-09T07:50:01.153Z,8.27
2023-12-09T07:52:29.772Z,8.97
2023-12-09T07:54:57.964Z,7.93
2023-12-09T07:57:26.188Z,9.17
2023-12-09T07:59:54.588Z,10.33
2023-12-09T08:02:23.040Z,11.73
2023-12-09T08:04:52.577Z,9.47
2023-12-09T08:07:20.742Z,10.13
2023-12-09T08:09:48.977Z,9.40
2023-12-09T08:12:17.532Z,8.43
2023-12-09T08:14:45.697Z,9.27
2023-12-09T08:17:14.072Z,8.50
2023-12-09T08:19:42.452Z,11.13
2023-12-09T08:22:13.790Z,8.43
2023-12-09T08:24:43.778Z,7.80
2023-12-09T08:27:12.229Z,10.27
2023-12-09T08:29:40.378Z,7.03
2023-12-09T08:32:10.477Z,8.37
2023-12-09T08:34:38.677Z,10.83
2023-12-09T08:37:07.022Z,8.87
2023-12-09T08:39:41.139Z,11.40
2023-12-09T08:42:10.052Z,9.33
2023-12-09T08:44:38.867Z,9.33
2023-12-09T08:47:07.708Z,11.00
2023-12-09T08:49:35.954Z,5.70
2023-12-09T08:52:04.454Z,8.23
2023-12-09T08:54:32.672Z,8.33
2023-12-09T08:57:02.391Z,9.20
2023-12-09T08:59:30.677Z,5.97
2023-12-09T09:01:58.908Z,9.43
2023-12-09T09:04:27.257Z,9.03
2023-12-09T09:06:55.605Z,8.70
2023-12-09T09:09:23.866Z,6.30
2023-12-09T09:11:52.274Z,5.77
2023-12-09T09:14:21.955Z,5.03
2023-12-09T09:16:50.222Z,5.80
2023-12-09T09:19:18.581Z,7.57
2023-12-09T09:21:46.949Z,7.93
2023-12-09T09:24:15.154Z,5.17
2023-12-09T09:26:43.391Z,6.13
2023-12-09T09:29:11.830Z,8.50
2023-12-09T09:31:41.398Z,6.10
2023-12-09T09:34:09.905Z,9.70
2023-12-09T09:36:38.371Z,8.67
2023-12-09T09:39:09.615Z,5.30
2023-12-09T09:41:46.337Z,4.13
2023-12-09T09:44:19.755Z,7.23
2023-12-09T09:46:53.524Z,7.40
2023-12-09T09:49:22.824Z,8.77
2023-12-09T09:51:55.149Z,4.87
2023-12-09T09:54:25.993Z,7.00
2023-12-09T09:56:54.768Z,7.60
2023-12-09T09:59:23.653Z,6.90
2023-12-09T10:01:54.670Z,4.07
2023-12-09T10:04:22.906Z,6.13
2023-12-09T10:06:51.686Z,5.50
2023-12-09T10:09:20.122Z,5.27
2023-12-09T10:11:48.326Z,3.70
2023-12-09T10:14:16.858Z,5.03
2023-12-09T10:16:45.652Z,5.00
2023-12-09T10:19:18.183Z,3.70
2023-12-09T10:21:46.523Z,5.40
2023-12-09T10:24:14.843Z,3.30
2023-12-09T10:26:43.852Z,5.03
2023-12-09T10:29:13.052Z,3.67
2023-12-09T10:31:42.473Z,5.70
2023-12-09T10:34:13.287Z,4.00
2023-12-09T10:36:42.941Z,5.27
2023-12-09T10:39:11.728Z,5.60
2023-12-09T10:41:39.939Z,2.40
2023-12-09T10:44:08.200Z,3.43
2023-12-09T10:46:38.948Z,4.00
2023-12-09T10:49:08.436Z,7.03
2023-12-09T10:51:36.648Z,4.23
2023-12-09T10:54:06.407Z,3.83
2023-12-09T10:56:35.567Z,2.80
2023-12-09T10:59:04.272Z,5.43
2023-12-09T11:01:33.221Z,4.23
2023-12-09T11:04:02.098Z,3.30
2023-12-09T11:06:34.764Z,2.07
2023-12-09T11:09:05.098Z,3.80
2023-12-09T11:11:34.698Z,2.23
2023-12-09T11:14:02.838Z,1.60
2023-12-09T11:16:31.431Z,2.63
2023-12-09T11:19:00.916Z,2.90
2023-12-09T11:21:31.041Z,3.63
2023-12-09T11:24:00.488Z,2.33
2023-12-09T11:26:30.787Z,2.33
2023-12-09T11:29:02.259Z,1.57
2023-12-09T11:31:35.489Z,3.90
2023-12-09T11:34:05.362Z,2.33
2023-12-09T11:36:39.995Z,4.13
2023-12-09T11:39:11.373Z,3.70
2023-12-09T11:41:40.350Z,1.90
2023-12-09T11:44:10.730Z,3.60
2023-12-09T11:46:39.651Z,2.60
2023-12-09T11:49:09.555Z,2.00
2023-12-09T11:51:39.943Z,2.37
2023-12-09T11:54:09.793Z,2.73
2023-12-09T11:56:39.295Z,2.00
2023-12-09T11:59:09.248Z,2.73
2023-12-09T12:01:38.375Z,1.47
2023-12-09T12:04:06.910Z,2.30
2023-12-09T12:06:35.429Z,2.60
2023-12-09T12:09:04.940Z,2.10
2023-12-09T12:11:35.316Z,1.90
2023-12-09T12:14:03.742Z,4.93
2023-12-09T12:16:33.422Z,3.67
2023-12-09T12:19:01.792Z,2.73
2023-12-09T12:21:30.767Z,1.17
2023-12-09T12:23:59.038Z,2.47
2023-12-09T12:26:28.938Z,1.60
2023-12-09T12:28:57.489Z,3.40
2023-12-09T12:31:26.442Z,3.30
2023-12-09T12:33:56.210Z,2.37
2023-12-09T12:36:25.417Z,1.80
2023-12-09T12:38:53.953Z,1.87
2023-12-09T12:41:22.238Z,4.97
2023-12-09T12:43:50.919Z,1.20
2023-12-09T12:46:21.672Z,0.70
2023-12-09T12:48:50.039Z,1.00
2023-12-09T12:51:20.160Z,1.10
2023-12-09T12:53:49.066Z,1.43
2023-12-09T12:56:17.356Z,1.40
2023-12-09T12:58:45.711Z,2.40
2023-12-09T13:01:14.024Z,2.17
2023-12-09T13:03:42.401Z,1.57
2023-12-09T13:06:12.024Z,1.73
2023-12-09T13:08:41.890Z,0.90
2023-12-09T13:11:11.469Z,0.80
2023-12-09T13:13:39.742Z,1.23
2023-12-09T13:16:10.098Z,0.83
2023-12-09T13:18:38.880Z,1.23
2023-12-09T13:21:09.476Z,1.70
2023-12-09T13:23:37.825Z,0.80
2023-12-09T13:26:07.915Z,2.20
2023-12-09T13:28:36.173Z,1.80
2023-12-09T13:31:04.570Z,0.87
2023-12-09T13:33:33.684Z,1.87
2023-12-09T13:36:03.079Z,1.87
2023-12-09T13:38:31.410Z,0.87
2023-12-09T13:40:59.613Z,0.90
2023-12-09T13:43:30.466Z,1.23
2023-12-09T13:45:58.686Z,1.17
2023-12-09T13:48:27.098Z,0.80
2023-12-09T13:50:55.535Z,1.57
2023-12-09T13:53:23.991Z,2.47
2023-12-09T13:55:52.256Z,1.00
2023-12-09T13:58:20.794Z,0.97
2023-12-09T14:00:50.605Z,0.80
2023-12-09T14:03:19.121Z,1.33
2023-12-09T14:05:47.489Z,2.13
2023-12-09T14:08:15.775Z,1.10
2023-12-09T14:10:44.554Z,1.47
2023-12-09T14:13:12.908Z,0.97
2023-12-09T14:15:41.801Z,0.80
2023-12-09T14:18:11.528Z,0.80
2023-12-09T14:20:39.855Z,0.93
2023-12-09T14:23:08.128Z,0.70
2023-12-09T14:25:36.375Z,0.70
2023-12-09T14:28:04.693Z,1.20
2023-12-09T14:30:33.255Z,1.43
2023-12-09T14:33:01.766Z,0.93
2023-12-09T14:35:31.646Z,0.90
2023-12-09T14:38:00.158Z,0.77
2023-12-09T14:40:28.362Z,0.87
2023-12-09T14:42:56.652Z,1.00
2023-12-09T14:45:24.921Z,1.50
2023-12-09T14:47:58.479Z,0.93
2023-12-09T14:50:34.262Z,0.90
2023-12-09T14:53:02.562Z,0.87
2023-12-09T14:55:30.790Z,1.20
2023-12-09T14:57:59.166Z,0.67
2023-12-09T15:00:28.436Z,0.40
2023-12-09T15:02:56.924Z,0.60
2023-12-09T15:05:25.501Z,0.77
2023-12-09T15:07:55.127Z,0.70
2023-12-09T15:10:24.542Z,0.50
2023-12-09T15:12:52.898Z,0.87
2023-12-09T15:15:22.379Z,0.83
2023-12-09T15:17:50.716Z,0.50
2023-12-09T15:20:19.054Z,1.57
2023-12-09T15:22:48.971Z,0.50
2023-12-09T15:25:20.207Z,0.60
2023-12-09T15:27:49.667Z,0.50
2023-12-09T15:30:19.920Z,1.57
2023-12-09T15:32:49.099Z,0.60
2023-12-09T15:35:18.228Z,0.60
2023-12-09T15:37:46.763Z,0.70
2023-12-09T15:40:17.128Z,1.53
2023-12-09T15:42:46.965Z,1.23
2023-12-09T15:45:15.524Z,17.63
2023-12-09T15:47:43.929Z,7.00
2023-12-09T15:50:12.295Z,2.93
2023-12-09T15:52:40.939Z,1.97
2023-12-09T15:55:10.511Z,4.50
2023-12-09T15:57:39.978Z,3.40
2023-12-09T16:00:11.469Z,0.80
2023-12-09T16:02:41.937Z,1.33
2023-12-09T16:05:13.292Z,1.00
2023-12-09T16:07:43.854Z,1.63
2023-12-09T16:10:13.297Z,0.80
2023-12-09T16:12:45.455Z,1.30
2023-12-09T16:15:15.705Z,2.07
2023-12-09T16:17:44.453Z,1.43
2023-12-09T16:20:13.631Z,1.40
2023-12-09T16:22:42.151Z,0.80
2023-12-09T16:25:10.938Z,0.77
2023-12-09T16:27:39.493Z,1.30
2023-12-09T16:30:09.169Z,2.57
2023-12-09T16:32:39.186Z,1.30
2023-12-09T16:35:08.528Z,1.50
2023-12-09T16:37:37.548Z,2.23
2023-12-09T16:40:08.730Z,2.03
2023-12-09T16:42:37.339Z,2.10
2023-12-09T16:45:09.106Z,3.13
2023-12-09T16:47:39.497Z,2.30
2023-12-09T16:50:11.463Z,4.77
2023-12-09T16:52:40.385Z,3.60
2023-12-09T16:55:09.522Z,3.20
2023-12-09T16:57:38.275Z,4.00
2023-12-09T17:00:08.020Z,2.30
2023-12-09T17:02:36.420Z,3.30
2023-12-09T17:05:06.915Z,5.77
2023-12-09T17:07:35.275Z,5.80
2023-12-09T17:10:03.580Z,12.13
2023-12-09T17:12:32.028Z,8.07
2023-12-09T17:15:00.516Z,7.57
2023-12-09T17:17:29.082Z,5.23
2023-12-09T17:19:57.520Z,5.00
2023-12-09T17:22:32.199Z,4.07
2023-12-09T17:25:00.619Z,2.77
2023-12-09T17:27:29.050Z,5.83
2023-12-09T17:29:57.613Z,4.20
2023-12-09T17:32:26.246Z,4.40
2023-12-09T17:34:54.838Z,6.87
2023-12-09T17:37:23.369Z,4.97
2023-12-09T17:39:53.133Z,4.40
2023-12-09T17:42:21.701Z,3.30
2023-12-09T17:44:50.002Z,4.23
2023-12-09T17:47:18.563Z,2.30
2023-12-09T17:49:46.980Z,3.60
2023-12-09T17:52:15.352Z,2.50
2023-12-09T17:54:43.743Z,2.60
2023-12-09T17:57:13.760Z,2.47
2023-12-09T18:00:05.810Z,2.33
2023-12-09T18:02:34.254Z,4.50
2023-12-09T18:05:02.687Z,5.40
2023-12-09T18:07:33.906Z,3.37
2023-12-09T18:10:02.392Z,3.40
2023-12-09T18:12:33.153Z,4.43
2023-12-09T18:15:01.580Z,3.93
2023-12-09T18:17:30.116Z,4.70
2023-12-09T18:19:58.428Z,5.60
2023-12-09T18:22:27.284Z,7.77
2023-12-09T18:24:55.907Z,6.03
2023-12-09T18:27:25.473Z,5.37
2023-12-09T18:29:56.088Z,7.27
2023-12-09T18:32:23.483Z,4.87
2023-12-09T18:34:51.780Z,6.20
2023-12-09T18:37:23.116Z,5.93
2023-12-09T18:39:51.501Z,8.53
2023-12-09T18:42:19.857Z,7.87
2023-12-09T18:44:48.152Z,7.87
2023-12-09T18:47:18.197Z,9.97
2023-12-09T18:49:46.836Z,13.60
2023-12-09T18:52:15.164Z,11.00
2023-12-09T18:54:43.473Z,12.13
2023-12-09T18:57:11.874Z,11.47
2023-12-09T18:59:40.185Z,14.80
2023-12-09T19:02:14.198Z,14.83
2023-12-09T19:04:45.745Z,14.13
2023-12-09T19:07:14.444Z,14.30
2023-12-09T19:09:43.351Z,17.40
2023-12-09T19:12:12.467Z,12.23
2023-12-09T19:14:41.001Z,11.97
2023-12-09T19:17:09.710Z,18.23
2023-12-09T19:19:38.140Z,14.30
2023-12-09T19:22:08.515Z,11.87
2023-12-09T19:24:36.890Z,20.27
2023-12-09T19:27:06.410Z,15.30
2023-12-09T19:29:34.660Z,12.20
2023-12-09T19:32:03.880Z,14.53
2023-12-09T19:34:32.355Z,14.87
2023-12-09T19:37:01.290Z,17.90
2023-12-09T19:39:31.020Z,14.43
2023-12-09T19:41:59.333Z,13.93
2023-12-09T19:44:27.741Z,16.40
2023-12-09T19:46:55.955Z,15.13
2023-12-09T19:49:25.824Z,15.67
2023-12-09T19:51:55.410Z,13.67
2023-12-09T19:54:24.794Z,16.20
2023-12-09T19:56:55.755Z,13.90
2023-12-09T19:59:24.216Z,15.07
2023-12-09T20:01:52.969Z,14.87
2023-12-09T20:04:21.395Z,15.60
2023-12-09T20:06:50.693Z,16.27
2023-12-09T20:09:19.201Z,16.27
2023-12-09T20:11:47.590Z,17.57
2023-12-09T20:14:17.213Z,14.93
2023-12-09T20:16:45.499Z,16.27
2023-12-09T20:19:13.799Z,15.90
2023-12-09T20:21:42.140Z,17.07
2023-12-09T20:24:10.998Z,20.10
2023-12-09T20:26:39.380Z,18.50
2023-12-09T20:29:07.812Z,21.50
2023-12-09T20:31:37.467Z,15.60
2023-12-09T20:34:05.875Z,18.20
2023-12-09T20:36:34.523Z,20.63
2023-12-09T20:39:02.748Z,17.53
2023-12-09T20:41:31.050Z,16.53
2023-12-09T20:43:59.545Z,18.07
2023-12-09T20:46:28.836Z,19.43
2023-12-09T20:48:58.783Z,20.17
2023-12-09T20:51:27.161Z,17.63
2023-12-09T20:53:55.521Z,21.37
2023-12-09T20:56:23.943Z,21.33
2023-12-09T20:58:52.210Z,19.10
2023-12-09T21:01:20.723Z,19.97
2023-12-09T21:03:49.212Z,18.13
2023-12-09T21:06:18.985Z,20.73
2023-12-09T21:08:48.153Z,17.57
2023-12-09T21:11:18.205Z,22.63
2023-12-09T21:13:46.703Z,24.70
2023-12-09T21:16:15.002Z,18.77
2023-12-09T21:18:43.322Z,20.83
2023-12-09T21:21:11.721Z,18.03
2023-12-09T21:23:41.686Z,22.07
2023-12-09T21:26:10.040Z,20.93
2023-12-09T21:28:38.644Z,21.23
2023-12-09T21:31:07.123Z,21.10
2023-12-09T21:33:35.546Z,21.70
2023-12-09T21:36:04.214Z,17.47
2023-12-09T21:38:34.674Z,21.63
2023-12-09T21:41:04.361Z,17.73
2023-12-09T21:43:33.385Z,20.30
2023-12-09T21:46:01.683Z,18.37
2023-12-09T21:48:30.241Z,16.60
2023-12-09T21:51:00.011Z,20.17
2023-12-09T21:53:28.335Z,21.73
2023-12-09T21:55:57.376Z,20.83
2023-12-09T21:58:27.120Z,17.23
2023-12-09T22:00:55.469Z,18.03
2023-12-09T22:03:23.910Z,20.57
2023-12-09T22:05:52.273Z,22.13
2023-12-09T22:08:20.562Z,18.57
2023-12-09T22:10:48.903Z,18.33
2023-12-09T22:13:17.144Z,18.93
2023-12-09T22:15:47.606Z,19.13
2023-12-09T22:18:16.175Z,20.60
2023-12-09T22:20:44.561Z,20.07
2023-12-09T22:23:12.789Z,17.53
2023-12-09T22:25:41.046Z,23.13
2023-12-09T22:28:09.589Z,15.97
2023-12-09T22:30:38.421Z,18.10
2023-12-09T22:33:08.161Z,21.97
2023-12-09T22:35:36.479Z,18.53
2023-12-09T22:38:04.988Z,20.70
2023-12-09T22:40:33.282Z,22.67
2023-12-09T22:43:01.725Z,20.57
2023-12-09T22:45:30.276Z,22.30
2023-12-09T22:47:58.991Z,21.93
2023-12-09T22:50:29.116Z,17.37
2023-12-09T22:52:57.304Z,18.43
2023-12-09T22:55:25.578Z,22.10
2023-12-09T22:57:53.953Z,27.70
2023-12-09T23:00:29.372Z,20.03
2023-12-09T23:02:57.710Z,20.50
2023-12-09T23:05:26.125Z,23.63
2023-12-09T23:07:55.844Z,21.10
2023-12-09T23:10:24.406Z,21.13
2023-12-09T23:12:53.079Z,25.77
2023-12-09T23:15:22.800Z,21.00
2023-12-09T23:17:50.125Z,18.77
2023-12-09T23:20:19.354Z,24.13
2023-12-09T23:22:47.693Z,21.93
2023-12-09T23:25:17.347Z,20.47
2023-12-09T23:27:45.701Z,22.77
2023-12-09T23:30:14.762Z,22.17
2023-12-09T23:32:43.068Z,22.03
2023-12-09T23:35:11.482Z,22.50
2023-12-09T23:37:39.751Z,19.40
2023-12-09T23:40:10.195Z,18.87
2023-12-09T23:42:39.915Z,21.50
2023-12-09T23:45:09.025Z,26.07
2023-12-09T23:47:37.369Z,19.17
2023-12-09T23:50:06.297Z,18.97
2023-12-09T23:52:34.817Z,17.77
2023-12-09T23:55:03.572Z,21.30
2023-12-09T23:57:31.852Z,22.07
